createdAt,value
2022-08-27T00:02:01.360Z,99579.78
2022-08-27T00:04:03.795Z,99584.94
2022-08-27T00:06:05.611Z,99596.16
2022-08-27T00:08:10.845Z,99592.38
2022-08-27T00:10:17.372Z,99593.69
2022-08-27T00:12:19.133Z,99592.31
2022-08-27T00:14:20.930Z,99591.78
2022-08-27T00:16:23.881Z,99598.94
2022-08-27T00:18:26.374Z,99587.94
2022-08-27T00:20:28.525Z,99586.34
2022-08-27T00:22:30.206Z,99582.00
2022-08-27T00:24:31.926Z,99571.94
2022-08-27T00:26:33.837Z,99561.25
2022-08-27T00:28:36.066Z,99562.06
2022-08-27T00:30:37.945Z,99557.41
2022-08-27T00:32:42.409Z,99576.81
2022-08-27T00:34:44.090Z,99575.16
2022-08-27T00:36:45.952Z,99576.16
2022-08-27T00:38:47.999Z,99572.16
2022-08-27T00:40:55.579Z,99566.63
2022-08-27T00:42:58.095Z,99573.03
2022-08-27T00:44:59.800Z,99561.53
2022-08-27T00:47:06.709Z,99563.44
2022-08-27T00:49:10.360Z,99556.09
2022-08-27T00:51:12.123Z,99557.97
2022-08-27T00:53:18.100Z,99544.53
2022-08-27T00:55:30.675Z,99552.09
2022-08-27T00:57:35.926Z,99548.56
2022-08-27T00:59:38.824Z,99557.59
2022-08-27T01:02:01.107Z,99563.66
2022-08-27T01:04:06.035Z,99560.59
2022-08-27T01:06:16.024Z,99557.94
2022-08-27T01:08:22.564Z,99554.75
2022-08-27T01:10:28.190Z,99555.84
2022-08-27T01:12:33.053Z,99539.38
2022-08-27T01:14:36.246Z,99552.44
2022-08-27T01:16:41.254Z,99554.72
2022-08-27T01:18:44.564Z,99554.69
2022-08-27T01:21:03.011Z,99546.75
2022-08-27T01:23:09.706Z,99545.72
2022-08-27T01:25:14.442Z,99551.84
2022-08-27T01:27:21.151Z,99550.78
2022-08-27T01:29:22.788Z,99562.06
2022-08-27T01:31:24.573Z,99559.84
2022-08-27T01:33:26.261Z,99560.94
2022-08-27T01:35:28.050Z,99559.56
2022-08-27T01:37:30.306Z,99561.69
2022-08-27T01:39:36.261Z,99565.53
2022-08-27T01:41:38.405Z,99568.34
2022-08-27T01:43:41.397Z,99558.28
2022-08-27T01:45:46.590Z,99559.06
2022-08-27T01:47:48.350Z,99562.34
2022-08-27T01:49:50.826Z,99565.34
2022-08-27T01:51:52.576Z,99557.44
2022-08-27T01:53:54.450Z,99555.22
2022-08-27T01:55:57.334Z,99567.28
2022-08-27T01:57:59.022Z,99559.06
2022-08-27T02:00:03.177Z,99552.50
2022-08-27T02:02:05.820Z,99557.38
2022-08-27T02:04:07.541Z,99557.38
2022-08-27T02:06:11.484Z,99552.13
2022-08-27T02:08:16.057Z,99555.53
2022-08-27T02:10:21.981Z,99550.09
2022-08-27T02:12:23.623Z,99553.63
2022-08-27T02:14:25.365Z,99557.97
2022-08-27T02:16:27.043Z,99544.66
2022-08-27T02:18:28.811Z,99545.72
2022-08-27T02:20:31.448Z,99551.44
2022-08-27T02:22:33.148Z,99548.72
2022-08-27T02:24:34.866Z,99539.16
2022-08-27T02:26:38.105Z,99525.25
2022-08-27T02:28:39.705Z,99528.81
2022-08-27T02:30:41.775Z,99536.47
2022-08-27T02:32:43.880Z,99536.16
2022-08-27T02:34:45.573Z,99540.00
2022-08-27T02:36:47.661Z,99536.16
2022-08-27T02:38:49.370Z,99532.84
2022-08-27T02:40:51.154Z,99539.16
2022-08-27T02:42:55.776Z,99533.94
2022-08-27T02:44:57.471Z,99545.91
2022-08-27T02:46:59.129Z,99533.44
2022-08-27T02:49:00.835Z,99534.53
2022-08-27T02:51:02.483Z,99528.50
2022-08-27T02:53:06.189Z,99535.00
2022-08-27T02:55:08.665Z,99535.84
2022-08-27T02:57:10.542Z,99529.75
2022-08-27T02:59:12.156Z,99530.66
2022-08-27T03:01:14.036Z,99525.25
2022-08-27T03:03:15.756Z,99526.53
2022-08-27T03:05:19.052Z,99525.25
2022-08-27T03:07:23.566Z,99533.16
2022-08-27T03:09:25.485Z,99540.53
2022-08-27T03:11:27.596Z,99545.19
2022-08-27T03:13:29.414Z,99530.97
2022-08-27T03:15:31.287Z,99540.66
2022-08-27T03:17:51.627Z,99535.00
2022-08-27T03:19:53.273Z,99530.44
2022-08-27T03:21:55.081Z,99534.28
2022-08-27T03:23:57.041Z,99538.00
2022-08-27T03:26:01.680Z,99539.00
2022-08-27T03:28:04.112Z,99516.72
2022-08-27T03:30:11.939Z,99530.91
2022-08-27T03:32:13.554Z,99535.63
2022-08-27T03:34:15.284Z,99540.53
2022-08-27T03:36:21.926Z,99539.97
2022-08-27T03:38:23.977Z,99545.19
2022-08-27T03:40:25.676Z,99542.72
2022-08-27T03:42:27.484Z,99546.97
2022-08-27T03:44:29.555Z,99550.84
2022-08-27T03:46:31.308Z,99536.91
2022-08-27T03:48:34.186Z,99535.63
2022-08-27T03:50:39.037Z,99533.44
2022-08-27T03:52:40.769Z,99545.09
2022-08-27T03:54:42.861Z,99540.25
2022-08-27T03:56:45.095Z,99538.34
2022-08-27T03:58:47.042Z,99533.69
2022-08-27T04:00:48.702Z,99532.88
2022-08-27T04:02:51.049Z,99536.97
2022-08-27T04:04:52.832Z,99539.72
2022-08-27T04:06:57.833Z,99541.59
2022-08-27T04:09:01.163Z,99537.25
2022-08-27T04:11:07.600Z,99540.78
2022-08-27T04:13:09.227Z,99530.13
2022-08-27T04:15:12.641Z,99535.28
2022-08-27T04:17:14.337Z,99539.56
2022-08-27T04:19:16.001Z,99544.16
2022-08-27T04:21:17.636Z,99543.03
2022-08-27T04:23:19.284Z,99549.19
2022-08-27T04:25:20.929Z,99553.03
2022-08-27T04:27:22.819Z,99545.94
2022-08-27T04:29:24.528Z,99541.34
2022-08-27T04:31:26.217Z,99545.16
2022-08-27T04:33:27.858Z,99543.25
2022-08-27T04:35:29.530Z,99542.41
2022-08-27T04:37:34.711Z,99536.41
2022-08-27T04:39:36.424Z,99540.53
2022-08-27T04:41:38.138Z,99531.50
2022-08-27T04:43:40.050Z,99530.97
2022-08-27T04:45:46.830Z,99538.91
2022-08-27T04:47:49.198Z,99535.88
2022-08-27T04:49:50.836Z,99536.69
2022-08-27T04:51:52.714Z,99544.84
2022-08-27T04:53:55.094Z,99538.06
2022-08-27T04:55:57.388Z,99538.34
2022-08-27T04:57:59.776Z,99533.72
2022-08-27T05:00:01.487Z,99539.69
2022-08-27T05:02:05.766Z,99528.97
2022-08-27T05:04:08.019Z,99521.44
2022-08-27T05:06:09.901Z,99529.63
2022-08-27T05:08:13.238Z,99537.78
2022-08-27T05:10:14.893Z,99541.59
2022-08-27T05:12:16.615Z,99555.25
2022-08-27T05:14:19.863Z,99550.22
2022-08-27T05:16:23.101Z,99541.16
2022-08-27T05:18:24.786Z,99539.19
2022-08-27T05:20:27.574Z,99544.81
2022-08-27T05:22:29.186Z,99553.34
2022-08-27T05:24:32.611Z,99553.66
2022-08-27T05:26:36.824Z,99554.41
2022-08-27T05:28:38.448Z,99555.53
2022-08-27T05:30:44.338Z,99550.03
2022-08-27T05:32:50.969Z,99551.31
2022-08-27T05:34:53.094Z,99557.88
2022-08-27T05:36:54.839Z,99553.06
2022-08-27T05:38:58.514Z,99560.16
2022-08-27T05:41:10.245Z,99556.84
2022-08-27T05:43:15.974Z,99567.81
2022-08-27T05:45:17.708Z,99555.25
2022-08-27T05:47:19.337Z,99552.75
2022-08-27T05:49:21.648Z,99553.38
2022-08-27T05:51:28.314Z,99551.44
2022-08-27T05:53:30.350Z,99544.28
2022-08-27T05:55:37.731Z,99553.91
2022-08-27T05:57:39.342Z,99541.59
2022-08-27T05:59:59.546Z,99542.16
2022-08-27T06:02:01.180Z,99540.25
2022-08-27T06:04:04.828Z,99542.66
2022-08-27T06:06:09.845Z,99543.47
2022-08-27T06:08:12.306Z,99553.38
2022-08-27T06:10:14.362Z,99541.34
2022-08-27T06:12:16.070Z,99540.00
2022-08-27T06:14:17.827Z,99542.66
2022-08-27T06:16:20.270Z,99550.31
2022-08-27T06:18:21.930Z,99555.13
2022-08-27T06:20:23.900Z,99537.44
2022-08-27T06:22:25.707Z,99542.25
2022-08-27T06:24:27.405Z,99524.00
2022-08-27T06:26:29.434Z,99539.19
2022-08-27T06:28:31.559Z,99545.19
2022-08-27T06:30:33.232Z,99548.97
2022-08-27T06:32:35.057Z,99552.16
2022-08-27T06:34:37.759Z,99552.75
2022-08-27T06:36:42.004Z,99559.63
2022-08-27T06:38:44.202Z,99555.81
2022-08-27T06:40:46.393Z,99559.09
2022-08-27T06:42:48.239Z,99565.34
2022-08-27T06:44:50.029Z,99549.25
2022-08-27T06:46:51.970Z,99548.97
2022-08-27T06:48:55.659Z,99561.59
2022-08-27T06:50:57.327Z,99551.44
2022-08-27T06:52:58.961Z,99559.63
2022-08-27T06:55:00.619Z,99562.03
2022-08-27T06:57:02.233Z,99555.84
2022-08-27T06:59:11.478Z,99559.63
2022-08-27T07:01:25.164Z,99563.69
2022-08-27T07:03:26.906Z,99572.72
2022-08-27T07:05:28.627Z,99583.06
2022-08-27T07:07:36.481Z,99579.25
2022-08-27T07:09:41.619Z,99569.06
2022-08-27T07:11:43.870Z,99575.63
2022-08-27T07:13:47.309Z,99582.50
2022-08-27T07:15:49.028Z,99579.78
2022-08-27T07:17:52.618Z,99578.03
2022-08-27T07:19:54.257Z,99581.06
2022-08-27T07:21:56.269Z,99574.78
2022-08-27T07:23:59.773Z,99581.00
2022-08-27T07:26:01.696Z,99589.00
2022-08-27T07:28:03.627Z,99594.47
2022-08-27T07:30:10.623Z,99595.88
2022-08-27T07:32:12.329Z,99586.34
2022-08-27T07:34:14.005Z,99590.72
2022-08-27T07:36:15.750Z,99586.88
2022-08-27T07:38:17.870Z,99583.88
2022-08-27T07:40:19.715Z,99593.19
2022-08-27T07:42:39.922Z,99595.94
2022-08-27T07:44:41.967Z,99601.38
2022-08-27T07:46:47.958Z,99597.44
2022-08-27T07:48:51.248Z,99606.84
2022-08-27T07:50:53.364Z,99608.72
2022-08-27T07:52:55.032Z,99614.78
2022-08-27T07:54:56.934Z,99614.47
2022-08-27T07:56:59.275Z,99603.03
2022-08-27T07:59:00.934Z,99599.75
2022-08-27T08:01:03.065Z,99601.09
2022-08-27T08:03:04.745Z,99604.09
2022-08-27T08:05:06.795Z,99611.44
2022-08-27T08:07:08.607Z,99610.94
2022-08-27T08:09:11.504Z,99611.19
2022-08-27T08:11:16.013Z,99602.50
2022-08-27T08:13:19.107Z,99603.56
2022-08-27T08:15:20.908Z,99596.16
2022-08-27T08:17:22.978Z,99602.16
2022-08-27T08:19:25.091Z,99601.66
2022-08-27T08:21:27.031Z,99608.19
2022-08-27T08:23:29.259Z,99601.66
2022-08-27T08:25:38.450Z,99613.16
2022-08-27T08:27:42.364Z,99615.16
2022-08-27T08:29:44.015Z,99616.38
2022-08-27T08:31:46.895Z,99617.41
2022-08-27T08:33:52.985Z,99620.50
2022-08-27T08:35:54.865Z,99619.91
2022-08-27T08:37:56.606Z,99613.94
2022-08-27T08:39:58.357Z,99623.25
2022-08-27T08:42:02.862Z,99610.31
2022-08-27T08:44:17.238Z,99619.38
2022-08-27T08:46:31.357Z,99621.50
2022-08-27T08:48:34.890Z,99616.13
2022-08-27T08:50:44.487Z,99618.31
2022-08-27T08:52:55.392Z,99623.50
2022-08-27T08:55:12.126Z,99633.28
2022-08-27T08:57:22.832Z,99619.25
2022-08-27T08:59:37.166Z,99633.78
2022-08-27T09:01:38.824Z,99633.78
2022-08-27T09:03:42.657Z,99653.47
2022-08-27T09:05:49.263Z,99646.13
2022-08-27T09:10:44.742Z,99651.75
2022-08-27T09:12:46.575Z,99645.88
2022-08-27T09:15:01.684Z,99636.94
2022-08-27T09:17:10.788Z,99646.97
2022-08-27T09:19:13.332Z,99643.84
2022-08-27T09:21:42.232Z,99640.19
2022-08-27T09:23:57.432Z,99647.63
2022-08-27T09:25:59.127Z,99642.50
2022-08-27T09:28:06.729Z,99656.94
2022-08-27T09:30:19.052Z,99664.28
2022-08-27T09:32:32.027Z,99676.28
2022-08-27T09:34:39.531Z,99666.56
2022-08-27T09:36:52.575Z,99667.94
2022-08-27T09:38:58.823Z,99667.72
2022-08-27T09:41:07.551Z,99669.56
2022-08-27T09:43:24.216Z,99679.22
2022-08-27T09:45:29.920Z,99666.28
2022-08-27T09:47:45.412Z,99666.56
2022-08-27T09:49:47.546Z,99665.25
2022-08-27T09:51:49.276Z,99684.47
2022-08-27T09:53:56.265Z,99682.34
2022-08-27T09:56:00.750Z,99683.31
2022-08-27T09:58:06.042Z,99688.31
2022-08-27T10:00:14.872Z,99682.38
2022-08-27T10:02:22.776Z,99695.13
2022-08-27T10:04:50.107Z,99687.34
2022-08-27T10:06:52.990Z,99690.34
2022-08-27T10:09:06.500Z,99680.38
2022-08-27T10:11:21.316Z,99679.38
2022-08-27T10:14:17.241Z,99672.91
2022-08-27T10:16:36.833Z,99695.47
2022-08-27T10:19:16.894Z,99684.59
2022-08-27T10:21:29.736Z,99694.16
2022-08-27T10:23:37.032Z,99698.91
2022-08-27T10:26:15.308Z,99690.81
2022-08-27T10:28:22.832Z,99690.59
2022-08-27T10:31:05.583Z,99692.78
2022-08-27T10:33:23.425Z,99687.34
2022-08-27T10:35:47.956Z,99688.41
2022-08-27T10:38:18.157Z,99686.56
2022-08-27T10:40:33.863Z,99687.38
2022-08-27T10:42:44.296Z,99678.38
2022-08-27T10:44:48.815Z,99701.81
2022-08-27T10:47:14.041Z,99681.41
2022-08-27T10:50:02.630Z,99689.88
2022-08-27T10:52:28.862Z,99686.81
2022-08-27T10:54:39.694Z,99675.81
2022-08-27T10:57:14.503Z,99680.19
2022-08-27T10:59:41.967Z,99694.09
2022-08-27T11:03:39.715Z,99642.81
2022-08-27T11:05:50.771Z,99653.78
2022-08-27T11:08:39.775Z,99664.66
2022-08-27T11:10:49.480Z,99680.75
2022-08-27T11:12:56.634Z,99681.41
2022-08-27T11:15:22.290Z,99668.78
2022-08-27T11:17:39.868Z,99669.81
2022-08-27T11:20:02.161Z,99665.19
2022-08-27T11:22:26.219Z,99652.38
2022-08-27T11:24:37.549Z,99644.78
2022-08-27T11:26:42.780Z,99650.47
2022-08-27T11:28:55.488Z,99650.97
2022-08-27T11:31:12.618Z,99649.09
2022-08-27T11:33:20.483Z,99653.41
2022-08-27T11:35:47.627Z,99641.25
2022-08-27T11:38:08.679Z,99663.25
2022-08-27T11:40:41.233Z,99656.25
2022-08-27T11:42:45.711Z,99656.81
2022-08-27T11:44:49.994Z,99645.84
2022-08-27T11:47:14.192Z,99646.84
2022-08-27T11:49:28.660Z,99642.81
2022-08-27T11:51:39.701Z,99648.88
2022-08-27T11:53:54.874Z,99656.25
2022-08-27T11:55:57.250Z,99652.16
2022-08-27T11:58:06.981Z,99651.34
2022-08-27T12:00:36.510Z,99660.19
2022-08-27T12:02:38.149Z,99656.50
2022-08-27T12:04:42.663Z,99647.56
2022-08-27T12:06:50.457Z,99631.38
2022-08-27T12:08:52.852Z,99630.00
2022-08-27T12:11:00.325Z,99635.72
2022-08-27T12:13:13.017Z,99644.59
2022-08-27T12:15:29.551Z,99637.97
2022-08-27T12:18:05.223Z,99621.81
2022-08-27T12:20:32.168Z,99622.59
2022-08-27T12:23:23.049Z,99625.94
2022-08-27T12:25:25.030Z,99635.75
2022-08-27T12:27:34.759Z,99640.97
2022-08-27T12:29:46.814Z,99641.41
2022-08-27T12:31:51.053Z,99624.59
2022-08-27T12:33:54.165Z,99625.66
2022-08-27T12:35:59.327Z,99635.78
2022-08-27T12:38:07.428Z,99637.44
2022-08-27T12:40:19.480Z,99644.50
2022-08-27T12:42:22.909Z,99639.88
2022-08-27T12:44:28.602Z,99645.00
2022-08-27T12:46:30.699Z,99637.09
2022-08-27T12:48:47.028Z,99634.69
2022-08-27T12:51:32.237Z,99639.59
2022-08-27T12:53:43.131Z,99625.91
2022-08-27T12:56:14.206Z,99610.38
2022-08-27T12:58:34.967Z,99612.19
2022-08-27T13:01:10.636Z,99605.91
2022-08-27T13:03:45.866Z,99625.66
2022-08-27T13:05:49.876Z,99622.38
2022-08-27T13:07:54.134Z,99624.53
2022-08-27T13:09:57.511Z,99616.03
2022-08-27T13:12:01.302Z,99612.91
2022-08-27T13:14:12.296Z,99615.31
2022-08-27T13:16:14.876Z,99611.50
2022-08-27T13:18:17.266Z,99609.50
2022-08-27T13:20:23.278Z,99612.44
2022-08-27T13:22:26.349Z,99613.44
2022-08-27T13:24:31.879Z,99600.09
2022-08-27T13:26:37.537Z,99607.88
2022-08-27T13:28:42.267Z,99610.66
2022-08-27T13:30:46.806Z,99601.22
2022-08-27T13:32:50.462Z,99610.94
2022-08-27T13:34:52.348Z,99585.94
2022-08-27T13:37:07.589Z,99600.47
2022-08-27T13:39:09.204Z,99603.88
2022-08-27T13:41:28.278Z,99595.47
2022-08-27T13:43:36.514Z,99599.25
2022-08-27T13:45:40.622Z,99601.38
2022-08-27T13:47:49.209Z,99597.53
2022-08-27T13:49:52.216Z,99600.13
2022-08-27T13:52:21.904Z,99604.78
2022-08-27T13:54:24.234Z,99588.63
2022-08-27T13:56:29.724Z,99585.16
2022-08-27T13:58:33.950Z,99583.97
2022-08-27T14:00:37.863Z,99594.69
2022-08-27T14:02:39.747Z,99598.38
2022-08-27T14:05:03.670Z,99599.47
2022-08-27T14:07:12.927Z,99596.75
2022-08-27T14:09:26.693Z,99580.59
2022-08-27T14:11:28.431Z,99587.31
2022-08-27T14:13:40.612Z,99603.91
2022-08-27T14:15:48.609Z,99599.03
2022-08-27T14:17:50.737Z,99602.00
2022-08-27T14:19:52.548Z,99600.09
2022-08-27T14:21:54.263Z,99592.44
2022-08-27T14:23:56.218Z,99589.56
2022-08-27T14:26:00.410Z,99583.44
2022-08-27T14:28:02.314Z,99581.88
2022-08-27T14:30:07.753Z,99573.84
2022-08-27T14:32:09.458Z,99572.47
2022-08-27T14:34:11.602Z,99583.69
2022-08-27T14:36:13.943Z,99571.81
2022-08-27T14:38:23.119Z,99590.59
2022-08-27T14:40:25.267Z,99584.84
2022-08-27T14:42:28.636Z,99589.09
2022-08-27T14:44:30.550Z,99580.34
2022-08-27T14:46:36.177Z,99577.69
2022-08-27T14:48:51.565Z,99562.25
2022-08-27T14:50:54.796Z,99559.13
2022-08-27T14:52:56.458Z,99563.19
2022-08-27T14:54:58.134Z,99568.81
2022-08-27T14:56:59.895Z,99542.91
2022-08-27T14:59:01.577Z,99536.34
2022-08-27T15:01:04.415Z,99535.88
2022-08-27T15:03:07.801Z,99526.28
2022-08-27T15:05:11.341Z,99530.97
2022-08-27T15:07:13.725Z,99538.50
2022-08-27T15:09:15.761Z,99540.19
2022-08-27T15:11:21.707Z,99543.38
2022-08-27T15:13:23.705Z,99537.38
2022-08-27T15:15:25.448Z,99557.81
2022-08-27T15:17:35.217Z,99561.72
2022-08-27T15:19:37.397Z,99554.22
2022-08-27T15:21:40.881Z,99551.84
2022-08-27T15:23:45.476Z,99555.31
2022-08-27T15:25:47.599Z,99555.59
2022-08-27T15:27:49.501Z,99554.44
2022-08-27T15:29:52.068Z,99535.06
2022-08-27T15:31:54.379Z,99535.50
2022-08-27T15:33:56.062Z,99555.56
2022-08-27T15:36:02.053Z,99549.13
2022-08-27T15:38:05.641Z,99570.31
2022-08-27T15:40:08.263Z,99562.06
2022-08-27T15:42:11.723Z,99555.84
2022-08-27T15:44:13.819Z,99550.00
2022-08-27T15:46:16.534Z,99551.59
2022-08-27T15:48:18.181Z,99560.38
2022-08-27T15:50:20.267Z,99561.59
2022-08-27T15:52:23.289Z,99560.38
2022-08-27T15:54:25.299Z,99560.47
2022-08-27T15:56:30.346Z,99548.03
2022-08-27T15:58:37.718Z,99568.75
2022-08-27T16:00:41.621Z,99559.47
2022-08-27T16:02:44.828Z,99559.47
2022-08-27T16:04:49.231Z,99553.28
2022-08-27T16:06:51.079Z,99556.56
2022-08-27T16:08:53.595Z,99539.94
2022-08-27T16:10:56.884Z,99540.53
2022-08-27T16:12:58.571Z,99537.66
2022-08-27T16:15:00.973Z,99535.34
2022-08-27T16:17:02.880Z,99542.13
2022-08-27T16:19:06.605Z,99523.53
2022-08-27T16:21:08.393Z,99526.53
2022-08-27T16:23:10.015Z,99546.81
2022-08-27T16:25:15.346Z,99533.56
2022-08-27T16:27:19.974Z,99540.78
2022-08-27T16:29:21.535Z,99528.88
2022-08-27T16:31:23.359Z,99530.94
2022-08-27T16:33:25.374Z,99522.50
2022-08-27T16:35:27.217Z,99515.50
2022-08-27T16:37:28.848Z,99525.25
2022-08-27T16:39:33.693Z,99526.66
2022-08-27T16:41:37.969Z,99525.34
2022-08-27T16:43:39.971Z,99530.91
2022-08-27T16:45:41.723Z,99535.06
2022-08-27T16:48:02.254Z,99540.88
2022-08-27T16:50:26.045Z,99535.56
2022-08-27T16:52:28.912Z,99533.91
2022-08-27T16:54:30.500Z,99538.03
2022-08-27T16:56:37.116Z,99529.66
2022-08-27T16:58:39.549Z,99522.06
2022-08-27T17:00:41.312Z,99520.31
2022-08-27T17:02:43.015Z,99534.91
2022-08-27T17:04:51.030Z,99529.69
2022-08-27T17:07:07.320Z,99535.06
2022-08-27T17:09:08.922Z,99523.91
2022-08-27T17:11:13.441Z,99528.22
2022-08-27T17:13:18.010Z,99513.25
2022-08-27T17:15:21.214Z,99522.09
2022-08-27T17:17:22.800Z,99525.66
2022-08-27T17:19:26.208Z,99520.28
2022-08-27T17:21:30.200Z,99524.81
2022-08-27T17:23:41.398Z,99526.22
2022-08-27T17:25:42.974Z,99521.88
2022-08-27T17:27:44.912Z,99525.53
2022-08-27T17:29:46.582Z,99522.22
2022-08-27T17:31:48.315Z,99532.25
2022-08-27T17:33:52.204Z,99527.75
2022-08-27T17:35:53.881Z,99525.75
2022-08-27T17:37:55.607Z,99521.63
2022-08-27T17:39:57.275Z,99517.50
2022-08-27T17:41:59.100Z,99510.75
2022-08-27T17:44:13.959Z,99510.66
2022-08-27T17:46:15.798Z,99515.31
2022-08-27T17:48:19.267Z,99504.72
2022-08-27T17:50:21.276Z,99519.38
2022-08-27T17:52:23.053Z,99521.53
2022-08-27T17:54:33.894Z,99523.44
2022-08-27T17:56:37.281Z,99535.81
2022-08-27T17:58:38.841Z,99525.44
2022-08-27T18:00:40.654Z,99519.66
2022-08-27T18:02:49.443Z,99524.44
2022-08-27T18:04:51.646Z,99526.44
2022-08-27T18:06:53.331Z,99531.19
2022-08-27T18:08:55.100Z,99527.97
2022-08-27T18:10:56.727Z,99539.88
2022-08-27T18:12:58.935Z,99534.66
2022-08-27T18:15:18.803Z,99532.47
2022-08-27T18:17:22.088Z,99533.53
2022-08-27T18:19:24.043Z,99536.78
2022-08-27T18:21:26.394Z,99537.00
2022-08-27T18:23:28.140Z,99548.13
2022-08-27T18:25:35.940Z,99559.31
2022-08-27T18:27:40.094Z,99559.31
2022-08-27T18:29:41.876Z,99564.13
2022-08-27T18:31:43.989Z,99564.94
2022-08-27T18:33:46.275Z,99566.00
2022-08-27T18:35:47.965Z,99567.66
2022-08-27T18:37:50.196Z,99569.84
2022-08-27T18:39:52.196Z,99566.56
2022-08-27T18:41:54.931Z,99569.13
2022-08-27T18:43:57.632Z,99582.66
2022-08-27T18:45:59.859Z,99582.03
2022-08-27T18:48:02.712Z,99590.03
2022-08-27T18:50:06.627Z,99587.69
2022-08-27T18:52:12.136Z,99583.16
2022-08-27T18:54:13.720Z,99578.09
2022-08-27T18:56:18.747Z,99579.72
2022-08-27T18:58:20.924Z,99579.16
2022-08-27T19:00:22.924Z,99574.56
2022-08-27T19:02:24.746Z,99574.13
2022-08-27T19:04:28.292Z,99580.81
2022-08-27T19:06:30.096Z,99581.19
2022-08-27T19:08:31.791Z,99585.16
2022-08-27T19:10:33.431Z,99586.13
2022-08-27T19:12:36.827Z,99592.19
2022-08-27T19:14:38.771Z,99584.72
2022-08-27T19:16:43.110Z,99585.94
2022-08-27T19:18:45.223Z,99589.09
2022-08-27T19:20:46.801Z,99586.41
2022-08-27T19:22:48.636Z,99587.38
2022-08-27T19:24:52.227Z,99590.91
2022-08-27T19:26:54.441Z,99593.13
2022-08-27T19:28:56.156Z,99602.31
2022-08-27T19:30:57.751Z,99607.25
2022-08-27T19:32:59.320Z,99597.38
2022-08-27T19:35:01.054Z,99601.81
2022-08-27T19:37:04.364Z,99601.72
2022-08-27T19:39:06.827Z,99606.19
2022-08-27T19:41:08.425Z,99616.47
2022-08-27T19:43:10.134Z,99615.34
2022-08-27T19:45:12.296Z,99620.06
2022-08-27T19:47:15.846Z,99619.97
2022-08-27T19:49:20.553Z,99618.56
2022-08-27T19:51:22.148Z,99615.88
2022-08-27T19:53:24.343Z,99616.59
2022-08-27T19:55:26.179Z,99626.63
2022-08-27T19:57:27.907Z,99620.66
2022-08-27T19:59:29.680Z,99623.31
2022-08-27T20:01:31.658Z,99627.59
2022-08-27T20:03:33.313Z,99632.84
2022-08-27T20:05:35.787Z,99639.59
2022-08-27T20:07:37.429Z,99641.53
2022-08-27T20:09:40.703Z,99637.03
2022-08-27T20:11:43.529Z,99633.81
2022-08-27T20:13:50.338Z,99637.44
2022-08-27T20:15:52.443Z,99640.28
2022-08-27T20:17:54.932Z,99647.94
2022-08-27T20:19:56.525Z,99645.75
2022-08-27T20:21:58.066Z,99644.38
2022-08-27T20:23:59.913Z,99652.09
2022-08-27T20:26:01.719Z,99649.66
2022-08-27T20:28:22.258Z,99640.25
2022-08-27T20:30:31.907Z,99643.69
2022-08-27T20:32:35.639Z,99651.91
2022-08-27T20:34:37.547Z,99659.34
2022-08-27T20:36:39.259Z,99661.78
2022-08-27T20:38:40.921Z,99667.13
2022-08-27T20:40:42.810Z,99666.16
2022-08-27T20:42:44.831Z,99667.50
2022-08-27T20:44:47.119Z,99663.13
2022-08-27T20:46:52.193Z,99678.56
2022-08-27T20:48:54.326Z,99667.00
2022-08-27T20:50:56.623Z,99672.75
2022-08-27T20:52:58.242Z,99670.56
2022-08-27T20:54:59.790Z,99677.00
2022-08-27T20:57:02.545Z,99674.00
2022-08-27T20:59:22.726Z,99666.84
2022-08-27T21:01:24.516Z,99660.72
2022-08-27T21:03:26.459Z,99654.34
2022-08-27T21:05:31.509Z,99667.09
2022-08-27T21:07:33.097Z,99668.41
2022-08-27T21:09:35.566Z,99675.84
2022-08-27T21:11:43.423Z,99667.72
2022-08-27T21:13:55.739Z,99664.06
2022-08-27T21:15:58.455Z,99675.63
2022-08-27T21:18:00.306Z,99665.19
2022-08-27T21:20:02.479Z,99658.28
2022-08-27T21:22:06.246Z,99647.94
2022-08-27T21:24:08.175Z,99652.41
2022-08-27T21:26:12.043Z,99660.16
2022-08-27T21:28:13.702Z,99673.25
2022-08-27T21:30:15.543Z,99677.41
2022-08-27T21:32:17.397Z,99677.34
2022-08-27T21:34:19.023Z,99678.81
2022-08-27T21:36:20.690Z,99668.31
2022-08-27T21:38:22.294Z,99670.13
2022-08-27T21:40:25.718Z,99673.84
2022-08-27T21:42:27.396Z,99662.09
2022-08-27T21:44:30.424Z,99663.63
2022-08-27T21:46:32.146Z,99651.56
2022-08-27T21:48:34.054Z,99654.56
2022-08-27T21:50:35.788Z,99656.16
2022-08-27T21:52:37.477Z,99662.00
2022-08-27T21:54:41.887Z,99661.78
2022-08-27T21:56:43.781Z,99653.63
2022-08-27T21:58:45.422Z,99649.91
2022-08-27T22:00:49.342Z,99649.94
2022-08-27T22:02:51.111Z,99647.38
2022-08-27T22:04:52.775Z,99645.66
2022-08-27T22:06:54.888Z,99645.34
2022-08-27T22:08:56.546Z,99639.78
2022-08-27T22:10:58.667Z,99641.31
2022-08-27T22:13:00.657Z,99640.94
2022-08-27T22:15:02.468Z,99637.69
2022-08-27T22:17:04.651Z,99633.06
2022-08-27T22:19:06.250Z,99640.63
2022-08-27T22:21:07.917Z,99646.41
2022-08-27T22:23:11.623Z,99628.56
2022-08-27T22:25:13.510Z,99634.84
2022-08-27T22:27:15.325Z,99642.00
2022-08-27T22:29:16.976Z,99641.78
2022-08-27T22:31:19.162Z,99631.38
2022-08-27T22:33:20.949Z,99640.41
2022-08-27T22:35:23.158Z,99640.41
2022-08-27T22:37:25.422Z,99638.75
2022-08-27T22:39:27.161Z,99629.22
2022-08-27T22:41:28.811Z,99639.06
2022-08-27T22:43:37.673Z,99630.03
2022-08-27T22:45:39.298Z,99630.00
2022-08-27T22:47:41.696Z,99636.28
2022-08-27T22:49:44.300Z,99647.50
2022-08-27T22:51:46.094Z,99631.13
2022-08-27T22:53:47.737Z,99633.56
2022-08-27T22:55:50.325Z,99645.28
2022-08-27T22:57:54.404Z,99643.63
2022-08-27T22:59:58.754Z,99642.50
2022-08-27T23:02:00.820Z,99646.97
2022-08-27T23:04:03.852Z,99642.28
2022-08-27T23:06:05.727Z,99643.59
2022-08-27T23:08:11.208Z,99654.28
2022-08-27T23:10:17.101Z,99646.38
2022-08-27T23:12:19.924Z,99651.00
2022-08-27T23:14:22.069Z,99638.22
2022-08-27T23:16:24.255Z,99655.56
2022-08-27T23:18:25.982Z,99651.63
2022-08-27T23:20:28.796Z,99645.88
2022-08-27T23:22:31.169Z,99657.06
2022-08-27T23:24:32.821Z,99649.41
2022-08-27T23:26:52.809Z,99653.75
2022-08-27T23:28:56.283Z,99650.75
2022-08-27T23:30:59.074Z,99645.03
2022-08-27T23:33:00.786Z,99658.38
2022-08-27T23:35:02.438Z,99656.25
2022-08-27T23:37:04.026Z,99661.69
2022-08-27T23:39:05.621Z,99658.34
2022-08-27T23:41:08.050Z,99665.69
2022-08-27T23:43:10.170Z,99657.84
2022-08-27T23:45:16.163Z,99664.03
2022-08-27T23:47:18.324Z,99661.38
2022-08-27T23:49:19.917Z,99670.50
2022-08-27T23:51:21.722Z,99662.91
2022-08-27T23:53:23.344Z,99665.00
2022-08-27T23:55:25.073Z,99669.56
2022-08-27T23:57:26.908Z,99667.09
2022-08-27T23:59:30.477Z,99663.34
